createdAt,value
2022-11-19T00:00:21.522Z,3.23
2022-11-19T00:02:50.799Z,3.27
2022-11-19T00:05:19.503Z,3.28
2022-11-19T00:07:51.105Z,3.34
2022-11-19T00:10:19.723Z,3.33
2022-11-19T00:12:55.464Z,3.40
2022-11-19T00:15:25.379Z,3.39
2022-11-19T00:17:55.893Z,3.25
2022-11-19T00:20:24.745Z,3.27
2022-11-19T00:22:54.645Z,2.97
2022-11-19T00:25:24.183Z,3.25
2022-11-19T00:27:55.032Z,3.42
2022-11-19T00:30:46.906Z,3.38
2022-11-19T00:33:14.997Z,3.34
2022-11-19T00:35:44.928Z,3.24
2022-11-19T00:38:13.255Z,3.35
2022-11-19T00:40:41.654Z,3.24
2022-11-19T00:43:29.013Z,3.25
2022-11-19T00:45:59.375Z,3.13
2022-11-19T00:48:28.154Z,3.25
2022-11-19T00:50:56.631Z,3.15
2022-11-19T00:53:25.483Z,3.20
2022-11-19T00:55:53.840Z,3.07
2022-11-19T00:58:22.642Z,3.12
2022-11-19T01:00:51.660Z,3.11
2022-11-19T01:03:22.405Z,2.97
2022-11-19T01:05:50.708Z,3.16
2022-11-19T01:08:19.234Z,3.05
2022-11-19T01:10:48.769Z,2.98
2022-11-19T01:13:34.538Z,3.08
2022-11-19T01:16:03.725Z,3.19
2022-11-19T01:18:34.362Z,3.11
2022-11-19T01:21:07.204Z,2.96
2022-11-19T01:23:35.806Z,3.02
2022-11-19T01:26:04.867Z,3.26
2022-11-19T01:28:33.749Z,3.27
2022-11-19T01:31:02.377Z,3.26
2022-11-19T01:33:30.443Z,2.94
2022-11-19T01:36:02.766Z,3.19
2022-11-19T01:38:32.883Z,3.08
2022-11-19T01:41:02.520Z,2.95
2022-11-19T01:43:45.625Z,2.86
2022-11-19T01:46:16.594Z,2.77
2022-11-19T01:48:48.939Z,2.95
2022-11-19T01:51:24.411Z,2.76
2022-11-19T01:53:55.392Z,2.76
2022-11-19T01:56:26.029Z,2.65
2022-11-19T01:58:59.497Z,2.64
2022-11-19T02:01:32.864Z,2.26
2022-11-19T02:04:05.250Z,2.45
2022-11-19T02:06:35.229Z,2.36
2022-11-19T02:09:04.543Z,2.33
2022-11-19T02:12:02.374Z,2.49
2022-11-19T02:15:12.710Z,2.50
2022-11-19T02:17:53.628Z,2.25
2022-11-19T02:20:46.479Z,2.32
2022-11-19T02:23:46.904Z,2.31
2022-11-19T02:26:45.199Z,2.10
2022-11-19T02:29:29.434Z,2.40
2022-11-19T02:32:08.146Z,2.18
2022-11-19T02:34:43.532Z,2.22
2022-11-19T02:37:16.643Z,2.23
2022-11-19T02:39:50.246Z,2.08
2022-11-19T02:42:25.927Z,2.19
2022-11-19T02:45:00.183Z,2.41
2022-11-19T02:47:33.804Z,2.30
2022-11-19T02:50:07.983Z,2.46
2022-11-19T02:52:38.168Z,2.22
2022-11-19T02:55:11.040Z,2.18
2022-11-19T02:57:39.986Z,2.19
2022-11-19T03:00:27.181Z,2.16
2022-11-19T03:03:21.551Z,2.22
2022-11-19T03:05:56.224Z,2.25
2022-11-19T03:08:25.801Z,2.03
2022-11-19T03:11:05.160Z,2.10
2022-11-19T03:13:58.023Z,2.14
2022-11-19T03:16:42.864Z,2.33
2022-11-19T03:19:21.919Z,2.07
2022-11-19T03:21:56.545Z,2.17
2022-11-19T03:24:30.690Z,1.95
2022-11-19T03:27:05.056Z,2.09
2022-11-19T03:29:37.061Z,2.13
2022-11-19T03:32:13.248Z,2.05
2022-11-19T03:34:46.330Z,1.92
2022-11-19T03:37:19.094Z,1.86
2022-11-19T03:39:51.929Z,1.96
2022-11-19T03:42:23.396Z,2.11
2022-11-19T03:45:01.131Z,1.87
2022-11-19T03:47:34.876Z,2.22
2022-11-19T03:50:08.902Z,2.15
2022-11-19T03:52:37.304Z,1.93
2022-11-19T03:55:06.447Z,1.93
2022-11-19T03:57:41.555Z,1.97
2022-11-19T04:00:11.519Z,1.95
2022-11-19T04:02:39.687Z,2.01
2022-11-19T04:05:12.331Z,1.99
2022-11-19T04:07:41.035Z,1.95
2022-11-19T04:10:10.610Z,1.94
2022-11-19T04:12:39.204Z,2.07
2022-11-19T04:15:08.449Z,2.21
2022-11-19T04:17:38.831Z,1.96
2022-11-19T04:20:12.005Z,2.02
2022-11-19T04:22:40.679Z,2.06
2022-11-19T04:25:10.196Z,1.98
2022-11-19T04:27:38.990Z,2.10
2022-11-19T04:30:08.448Z,2.05
2022-11-19T04:32:37.190Z,2.10
2022-11-19T04:35:12.146Z,2.16
2022-11-19T04:37:40.778Z,2.18
2022-11-19T04:40:10.562Z,2.01
2022-11-19T04:42:39.405Z,2.05
2022-11-19T04:45:09.875Z,2.17
2022-11-19T04:47:38.350Z,2.21
2022-11-19T04:50:08.147Z,2.27
2022-11-19T04:52:40.894Z,2.37
2022-11-19T04:55:10.981Z,2.30
2022-11-19T04:57:39.577Z,2.36
2022-11-19T05:00:09.428Z,2.23
2022-11-19T05:02:37.613Z,2.00
2022-11-19T05:05:06.470Z,2.18
2022-11-19T05:07:34.679Z,2.27
2022-11-19T05:10:05.637Z,2.37
2022-11-19T05:12:34.118Z,2.25
2022-11-19T05:15:02.547Z,2.12
2022-11-19T05:17:30.667Z,2.29
2022-11-19T05:20:00.464Z,2.27
2022-11-19T05:22:28.938Z,2.22
2022-11-19T05:24:57.078Z,2.08
2022-11-19T05:27:27.465Z,2.24
2022-11-19T05:29:55.847Z,2.13
2022-11-19T05:32:24.398Z,2.14
2022-11-19T05:34:52.942Z,2.38
2022-11-19T05:37:21.497Z,2.49
2022-11-19T05:39:49.955Z,2.49
2022-11-19T05:42:18.347Z,2.55
2022-11-19T05:44:48.646Z,2.49
2022-11-19T05:47:17.750Z,2.33
2022-11-19T05:49:46.142Z,2.39
2022-11-19T05:52:14.848Z,2.29
2022-11-19T05:54:43.095Z,2.25
2022-11-19T05:57:11.372Z,2.22
2022-11-19T05:59:43.691Z,2.20
2022-11-19T06:02:13.863Z,2.24
2022-11-19T06:04:42.313Z,2.15
2022-11-19T06:07:11.675Z,2.13
2022-11-19T06:09:40.138Z,2.13
2022-11-19T06:12:08.838Z,2.24
2022-11-19T06:14:37.118Z,2.20
2022-11-19T06:17:05.625Z,2.17
2022-11-19T06:19:36.723Z,2.08
2022-11-19T06:22:05.797Z,2.10
2022-11-19T06:24:35.501Z,2.29
2022-11-19T06:27:03.939Z,2.19
2022-11-19T06:29:32.161Z,2.02
2022-11-19T06:32:00.413Z,1.77
2022-11-19T06:34:28.795Z,1.92
2022-11-19T06:36:59.131Z,1.71
2022-11-19T06:39:27.540Z,1.89
2022-11-19T06:42:15.904Z,1.75
2022-11-19T06:44:44.027Z,1.71
2022-11-19T06:47:12.499Z,1.86
2022-11-19T06:49:41.010Z,1.82
2022-11-19T06:52:10.707Z,1.74
2022-11-19T06:54:42.980Z,1.58
2022-11-19T06:57:11.541Z,1.78
2022-11-19T06:59:40.372Z,1.54
2022-11-19T07:02:09.661Z,1.64
2022-11-19T07:04:38.073Z,1.47
2022-11-19T07:07:07.185Z,1.57
2022-11-19T07:09:37.118Z,1.70
2022-11-19T07:12:06.113Z,1.71
2022-11-19T07:14:34.553Z,1.86
2022-11-19T07:17:03.032Z,1.65
2022-11-19T07:19:31.762Z,1.72
2022-11-19T07:22:00.216Z,1.69
2022-11-19T07:24:28.775Z,1.53
2022-11-19T07:26:58.877Z,1.58
2022-11-19T07:29:27.123Z,1.68
2022-11-19T07:31:55.591Z,1.42
2022-11-19T07:34:24.254Z,1.32
2022-11-19T07:36:54.227Z,1.37
2022-11-19T07:39:23.183Z,1.48
2022-11-19T07:42:09.153Z,1.29
2022-11-19T07:44:38.961Z,1.51
2022-11-19T07:47:08.437Z,1.44
2022-11-19T07:49:36.993Z,1.44
2022-11-19T07:52:06.523Z,1.36
2022-11-19T07:54:34.671Z,1.44
2022-11-19T07:57:03.653Z,1.67
2022-11-19T07:59:31.828Z,1.73
2022-11-19T08:02:01.560Z,1.66
2022-11-19T08:04:30.599Z,1.68
2022-11-19T08:07:00.392Z,1.71
2022-11-19T08:09:28.924Z,1.67
2022-11-19T08:11:57.409Z,1.72
2022-11-19T08:14:25.577Z,1.62
2022-11-19T08:17:10.759Z,1.67
2022-11-19T08:19:41.923Z,1.55
2022-11-19T08:22:11.972Z,1.71
2022-11-19T08:24:40.186Z,1.64
2022-11-19T08:27:08.694Z,1.61
2022-11-19T08:29:36.852Z,1.65
2022-11-19T08:32:05.270Z,1.81
2022-11-19T08:34:34.390Z,1.77
2022-11-19T08:37:04.377Z,1.73
2022-11-19T08:39:32.458Z,1.63
2022-11-19T08:42:18.272Z,1.52
2022-11-19T08:44:46.578Z,1.70
2022-11-19T08:47:15.485Z,1.58
2022-11-19T08:49:45.833Z,1.65
2022-11-19T08:52:18.690Z,1.77
2022-11-19T08:54:47.407Z,1.67
2022-11-19T08:57:15.476Z,1.76
2022-11-19T08:59:43.813Z,1.94
2022-11-19T09:02:12.786Z,1.77
2022-11-19T09:04:41.659Z,1.60
2022-11-19T09:07:10.662Z,1.80
2022-11-19T09:09:41.337Z,1.68
2022-11-19T09:12:10.741Z,1.85
2022-11-19T09:14:39.728Z,1.76
2022-11-19T09:17:09.146Z,2.06
2022-11-19T09:19:37.834Z,1.72
2022-11-19T09:22:06.406Z,2.11
2022-11-19T09:24:34.583Z,2.17
2022-11-19T09:27:05.065Z,2.22
2022-11-19T09:29:33.384Z,2.52
2022-11-19T09:32:03.901Z,2.41
2022-11-19T09:34:33.562Z,2.35
2022-11-19T09:37:01.920Z,2.34
2022-11-19T09:39:30.717Z,2.22
2022-11-19T09:42:12.615Z,2.38
2022-11-19T09:44:55.963Z,2.39
2022-11-19T09:47:35.832Z,2.68
2022-11-19T09:50:13.820Z,2.57
2022-11-19T09:52:47.661Z,2.96
2022-11-19T09:55:20.745Z,2.91
2022-11-19T09:57:54.394Z,2.77
2022-11-19T10:00:25.311Z,2.48
2022-11-19T10:02:54.327Z,2.60
2022-11-19T10:05:38.573Z,2.57
2022-11-19T10:08:21.789Z,2.70
2022-11-19T10:11:00.454Z,2.74
2022-11-19T10:13:45.051Z,2.61
2022-11-19T10:16:30.196Z,2.69
2022-11-19T10:19:07.199Z,2.95
2022-11-19T10:21:45.651Z,2.84
2022-11-19T10:24:18.679Z,2.63
2022-11-19T10:26:54.334Z,2.87
2022-11-19T10:29:28.551Z,2.88
2022-11-19T10:32:18.526Z,2.80
2022-11-19T10:34:47.958Z,3.17
2022-11-19T10:37:20.786Z,3.17
2022-11-19T10:39:55.013Z,2.84
2022-11-19T10:42:29.657Z,2.98
2022-11-19T10:45:03.382Z,3.15
2022-11-19T10:47:40.939Z,3.16
2022-11-19T10:50:19.001Z,3.12
2022-11-19T10:52:53.479Z,3.05
2022-11-19T10:55:26.132Z,3.26
2022-11-19T10:58:07.240Z,3.29
2022-11-19T11:00:39.075Z,3.11
2022-11-19T11:03:20.798Z,3.05
2022-11-19T11:05:59.227Z,2.74
2022-11-19T11:08:27.667Z,2.66
2022-11-19T11:10:56.344Z,2.74
2022-11-19T11:13:49.213Z,2.92
2022-11-19T11:16:21.739Z,2.91
2022-11-19T11:18:51.163Z,2.76
2022-11-19T11:21:43.182Z,3.00
2022-11-19T11:24:13.505Z,3.07
2022-11-19T11:26:42.370Z,3.12
2022-11-19T11:29:27.332Z,3.33
2022-11-19T11:31:57.084Z,3.16
2022-11-19T11:34:35.081Z,2.85
2022-11-19T11:37:05.261Z,2.68
2022-11-19T11:39:37.885Z,2.97
2022-11-19T11:42:17.587Z,3.08
2022-11-19T11:44:52.434Z,3.17
2022-11-19T11:47:26.720Z,3.14
2022-11-19T11:50:06.049Z,2.94
2022-11-19T11:52:38.722Z,3.08
2022-11-19T11:55:10.402Z,3.35
2022-11-19T11:57:53.289Z,3.17
2022-11-19T12:00:36.864Z,3.05
2022-11-19T12:03:08.776Z,2.79
2022-11-19T12:05:53.227Z,2.88
2022-11-19T12:08:42.766Z,3.23
2022-11-19T12:11:19.064Z,3.32
2022-11-19T12:13:55.489Z,3.24
2022-11-19T12:16:38.812Z,3.47
2022-11-19T12:19:29.684Z,3.22
2022-11-19T12:22:05.913Z,3.31
2022-11-19T12:24:44.996Z,3.33
2022-11-19T12:27:23.589Z,3.25
2022-11-19T12:30:01.602Z,3.29
2022-11-19T12:32:52.163Z,3.38
2022-11-19T12:35:45.446Z,3.38
2022-11-19T12:38:38.330Z,3.25
2022-11-19T12:41:27.436Z,3.36
2022-11-19T12:44:00.359Z,3.57
2022-11-19T12:46:45.538Z,3.46
2022-11-19T12:49:39.772Z,3.48
2022-11-19T12:52:35.890Z,3.16
2022-11-19T12:55:15.123Z,3.23
2022-11-19T12:57:51.758Z,3.15
2022-11-19T13:00:22.561Z,3.28
2022-11-19T13:03:02.702Z,3.45
2022-11-19T13:05:41.130Z,3.72
2022-11-19T13:08:18.515Z,3.58
2022-11-19T13:10:51.270Z,3.68
2022-11-19T13:13:26.381Z,3.52
2022-11-19T13:16:00.542Z,3.43
2022-11-19T13:18:35.329Z,3.71
2022-11-19T13:21:07.391Z,3.86
2022-11-19T13:23:41.605Z,3.86
2022-11-19T13:26:14.882Z,3.86
2022-11-19T13:28:48.784Z,4.27
2022-11-19T13:31:27.763Z,4.28
2022-11-19T13:34:01.907Z,4.17
2022-11-19T13:36:36.832Z,3.71
2022-11-19T13:39:16.441Z,3.91
2022-11-19T13:42:07.906Z,3.74
2022-11-19T13:44:41.773Z,3.72
2022-11-19T13:47:16.705Z,3.54
2022-11-19T13:49:48.411Z,3.37
2022-11-19T13:52:26.292Z,3.30
2022-11-19T13:54:59.092Z,3.45
2022-11-19T13:57:32.940Z,3.36
2022-11-19T14:00:06.264Z,3.29
2022-11-19T14:03:00.554Z,3.56
2022-11-19T14:06:03.862Z,3.73
2022-11-19T14:08:49.845Z,3.79
2022-11-19T14:11:39.364Z,3.63
2022-11-19T14:14:45.987Z,3.39
2022-11-19T14:17:44.078Z,3.02
2022-11-19T14:20:54.628Z,3.27
2022-11-19T14:24:02.404Z,2.99
2022-11-19T14:27:05.338Z,2.85
2022-11-19T14:29:59.726Z,2.98
2022-11-19T14:32:39.929Z,3.11
2022-11-19T14:35:33.183Z,3.11
2022-11-19T14:38:37.198Z,3.12
2022-11-19T14:41:32.256Z,2.95
2022-11-19T14:44:13.260Z,2.84
2022-11-19T14:46:48.410Z,2.82
2022-11-19T14:49:34.966Z,3.06
2022-11-19T14:52:04.654Z,2.98
2022-11-19T14:54:38.145Z,2.84
2022-11-19T14:57:16.960Z,2.80
2022-11-19T15:00:02.063Z,2.74
2022-11-19T15:02:38.043Z,2.68
2022-11-19T15:05:17.093Z,2.55
2022-11-19T15:07:54.276Z,2.38
2022-11-19T15:10:31.593Z,2.44
2022-11-19T15:13:17.930Z,2.42
2022-11-19T15:15:52.345Z,2.53
2022-11-19T15:18:59.146Z,2.64
2022-11-19T15:21:45.467Z,2.57
2022-11-19T15:24:26.959Z,2.28
2022-11-19T15:27:08.271Z,2.40
2022-11-19T15:30:13.171Z,2.22
2022-11-19T15:33:17.384Z,2.36
2022-11-19T15:36:22.874Z,2.31
2022-11-19T15:39:03.334Z,2.26
2022-11-19T15:41:36.746Z,2.23
2022-11-19T15:44:10.219Z,2.10
2022-11-19T15:46:45.003Z,2.38
2022-11-19T15:49:19.963Z,2.24
2022-11-19T15:52:01.193Z,2.35
2022-11-19T15:54:33.034Z,2.38
2022-11-19T15:57:06.080Z,2.50
2022-11-19T15:59:37.859Z,2.26
2022-11-19T16:02:20.208Z,2.27
2022-11-19T16:04:51.725Z,2.29
2022-11-19T16:07:30.403Z,2.10
2022-11-19T16:10:00.900Z,2.26
2022-11-19T16:12:51.807Z,2.13
2022-11-19T16:15:42.048Z,2.34
2022-11-19T16:18:20.169Z,2.23
2022-11-19T16:20:50.741Z,2.48
2022-11-19T16:23:22.962Z,2.12
2022-11-19T16:25:51.902Z,2.12
2022-11-19T16:28:25.213Z,2.01
2022-11-19T16:30:55.633Z,2.10
2022-11-19T16:33:30.188Z,2.06
2022-11-19T16:36:13.441Z,2.12
2022-11-19T16:38:48.934Z,1.77
2022-11-19T16:41:37.562Z,2.01
2022-11-19T16:44:11.082Z,2.21
2022-11-19T16:46:40.899Z,1.99
2022-11-19T16:49:16.548Z,1.98
2022-11-19T16:51:54.521Z,1.90
2022-11-19T16:54:47.598Z,1.97
2022-11-19T16:57:19.622Z,1.87
2022-11-19T16:59:51.295Z,1.56
2022-11-19T17:02:22.037Z,1.76
2022-11-19T17:04:53.928Z,1.90
2022-11-19T17:07:28.291Z,1.91
2022-11-19T17:10:30.741Z,1.90
2022-11-19T17:13:03.093Z,1.87
2022-11-19T17:15:39.054Z,1.63
2022-11-19T17:18:31.163Z,1.39
2022-11-19T17:21:03.818Z,1.41
2022-11-19T17:23:34.123Z,1.55
2022-11-19T17:26:06.975Z,1.37
2022-11-19T17:28:41.493Z,1.43
2022-11-19T17:31:18.583Z,1.56
2022-11-19T17:33:54.072Z,1.57
2022-11-19T17:36:23.220Z,1.38
2022-11-19T17:38:51.800Z,1.55
2022-11-19T17:41:38.570Z,1.52
2022-11-19T17:44:27.998Z,1.56
2022-11-19T17:46:57.008Z,1.61
2022-11-19T17:49:25.481Z,1.64
2022-11-19T17:51:55.527Z,1.65
2022-11-19T17:54:24.605Z,1.71
2022-11-19T17:56:54.707Z,1.61
2022-11-19T17:59:23.121Z,1.65
2022-11-19T18:01:52.485Z,1.63
2022-11-19T18:04:21.321Z,1.55
2022-11-19T18:06:50.458Z,1.25
2022-11-19T18:09:21.193Z,1.43
2022-11-19T18:11:49.572Z,1.52
2022-11-19T18:14:20.196Z,1.42
2022-11-19T18:16:48.749Z,1.54
2022-11-19T18:19:26.819Z,1.59
2022-11-19T18:21:56.185Z,1.77
2022-11-19T18:24:25.158Z,1.77
2022-11-19T18:26:53.780Z,1.86
2022-11-19T18:29:24.187Z,1.54
2022-11-19T18:31:53.554Z,1.65
2022-11-19T18:34:25.854Z,1.54
2022-11-19T18:36:55.247Z,1.62
2022-11-19T18:39:23.821Z,1.60
2022-11-19T18:41:52.833Z,1.52
2022-11-19T18:44:33.842Z,1.52
2022-11-19T18:47:06.391Z,1.59
2022-11-19T18:49:35.305Z,1.44
2022-11-19T18:52:03.949Z,1.38
2022-11-19T18:54:32.370Z,1.26
2022-11-19T18:57:01.060Z,1.31
2022-11-19T18:59:30.775Z,1.18
2022-11-19T19:02:00.435Z,1.22
2022-11-19T19:04:29.029Z,1.31
2022-11-19T19:06:59.372Z,1.30
2022-11-19T19:09:28.878Z,1.28
2022-11-19T19:12:16.770Z,1.15
2022-11-19T19:14:48.544Z,1.05
2022-11-19T19:17:17.975Z,1.07
2022-11-19T19:19:46.925Z,1.12
2022-11-19T19:22:15.447Z,1.11
2022-11-19T19:24:44.315Z,1.28
2022-11-19T19:27:12.662Z,1.09
2022-11-19T19:29:41.408Z,1.23
2022-11-19T19:32:11.196Z,0.99
2022-11-19T19:34:40.675Z,1.11
2022-11-19T19:37:10.131Z,1.13
2022-11-19T19:39:38.871Z,1.27
2022-11-19T19:42:08.913Z,1.34
2022-11-19T19:44:38.293Z,1.37
2022-11-19T19:47:07.184Z,1.41
2022-11-19T19:49:39.063Z,1.10
2022-11-19T19:52:07.782Z,1.31
2022-11-19T19:54:36.348Z,1.29
2022-11-19T19:57:06.015Z,1.22
2022-11-19T19:59:34.698Z,1.06
2022-11-19T20:02:03.237Z,1.12
2022-11-19T20:04:33.856Z,1.03
2022-11-19T20:07:04.151Z,1.09
2022-11-19T20:09:32.449Z,0.96
2022-11-19T20:12:01.070Z,1.11
2022-11-19T20:14:29.168Z,1.24
2022-11-19T20:16:59.156Z,1.38
2022-11-19T20:19:27.586Z,1.47
2022-11-19T20:21:56.638Z,1.45
2022-11-19T20:24:26.379Z,1.41
2022-11-19T20:26:54.507Z,1.33
2022-11-19T20:29:24.376Z,1.32
2022-11-19T20:31:53.567Z,1.25
2022-11-19T20:34:21.922Z,1.25
2022-11-19T20:36:50.737Z,1.14
2022-11-19T20:39:19.423Z,1.23
2022-11-19T20:42:06.978Z,1.10
2022-11-19T20:44:35.210Z,1.12
2022-11-19T20:47:04.961Z,1.24
2022-11-19T20:49:35.559Z,1.39
2022-11-19T20:52:07.642Z,1.43
2022-11-19T20:54:36.087Z,1.43
2022-11-19T20:57:06.117Z,1.42
2022-11-19T20:59:34.534Z,1.23
2022-11-19T21:02:03.176Z,1.31
2022-11-19T21:04:36.624Z,1.37
2022-11-19T21:07:05.509Z,1.35
2022-11-19T21:09:34.037Z,1.36
2022-11-19T21:12:02.281Z,1.23
2022-11-19T21:14:33.640Z,1.22
2022-11-19T21:17:02.143Z,1.34
2022-11-19T21:19:30.562Z,1.30
2022-11-19T21:21:58.714Z,1.10
2022-11-19T21:24:29.300Z,1.17
2022-11-19T21:26:57.792Z,1.21
2022-11-19T21:29:26.733Z,1.30
2022-11-19T21:31:56.925Z,1.18
2022-11-19T21:34:25.159Z,1.30
2022-11-19T21:36:53.477Z,1.37
2022-11-19T21:39:22.678Z,1.43
2022-11-19T21:41:51.792Z,1.44
2022-11-19T21:44:21.695Z,1.24
2022-11-19T21:46:50.985Z,1.11
2022-11-19T21:49:21.281Z,1.02
2022-11-19T21:51:53.344Z,1.15
2022-11-19T21:54:22.230Z,0.94
2022-11-19T21:56:50.786Z,0.91
2022-11-19T21:59:19.485Z,0.86
2022-11-19T22:01:53.327Z,0.79
2022-11-19T22:04:24.388Z,1.07
2022-11-19T22:06:53.185Z,1.05
2022-11-19T22:09:23.141Z,0.92
2022-11-19T22:11:51.415Z,0.99
2022-11-19T22:14:22.246Z,0.95
2022-11-19T22:16:51.941Z,0.90
2022-11-19T22:19:20.977Z,0.95
2022-11-19T22:21:51.180Z,0.76
2022-11-19T22:24:19.571Z,0.76
2022-11-19T22:26:48.094Z,0.95
2022-11-19T22:29:17.007Z,0.92
2022-11-19T22:31:45.486Z,1.02
2022-11-19T22:34:14.804Z,0.96
2022-11-19T22:36:45.829Z,0.91
2022-11-19T22:39:15.421Z,0.81
2022-11-19T22:41:43.880Z,0.79
2022-11-19T22:44:12.100Z,0.94
2022-11-19T22:46:40.419Z,0.92
2022-11-19T22:49:08.857Z,0.85
2022-11-19T22:51:37.468Z,0.88
2022-11-19T22:54:09.477Z,0.94
2022-11-19T22:56:39.539Z,0.74
2022-11-19T22:59:07.947Z,0.52
2022-11-19T23:01:37.575Z,0.72
2022-11-19T23:04:07.820Z,0.70
2022-11-19T23:06:36.913Z,0.63
2022-11-19T23:09:06.844Z,0.56
2022-11-19T23:11:51.860Z,0.69
2022-11-19T23:14:22.529Z,0.57
2022-11-19T23:16:50.884Z,0.70
2022-11-19T23:19:19.927Z,0.66
2022-11-19T23:21:48.790Z,0.65
2022-11-19T23:24:17.614Z,0.63
2022-11-19T23:26:45.863Z,0.65
2022-11-19T23:29:14.019Z,0.65
2022-11-19T23:31:43.847Z,0.65
2022-11-19T23:34:12.459Z,0.69
2022-11-19T23:36:42.672Z,0.77
2022-11-19T23:39:16.335Z,0.58
2022-11-19T23:41:46.894Z,0.63
2022-11-19T23:44:16.581Z,0.65
2022-11-19T23:46:47.442Z,0.61
2022-11-19T23:49:16.236Z,0.60
2022-11-19T23:51:44.789Z,0.65
2022-11-19T23:54:14.013Z,0.57
2022-11-19T23:56:42.655Z,0.42
2022-11-19T23:59:10.935Z,0.55
